createdAt,value
2019-02-03T00:03:46.560Z,97.83
2019-02-03T00:08:53.878Z,98.50
2019-02-03T00:14:00.369Z,99.07
2019-02-03T00:19:05.876Z,98.43
2019-02-03T00:24:13.279Z,107.97
2019-02-03T00:29:20.393Z,108.23
2019-02-03T00:34:33.162Z,106.53
2019-02-03T00:39:38.889Z,114.20
2019-02-03T00:44:50.494Z,115.93
2019-02-03T00:50:01.514Z,108.90
2019-02-03T00:55:09.438Z,112.47
2019-02-03T01:00:15.564Z,108.67
2019-02-03T01:05:20.819Z,118.33
2019-02-03T01:10:25.965Z,124.53
2019-02-03T01:15:32.411Z,118.93
2019-02-03T01:20:37.774Z,116.00
2019-02-03T01:25:42.865Z,116.87
2019-02-03T01:30:48.330Z,109.07
2019-02-03T01:35:53.993Z,115.03
2019-02-03T01:40:59.248Z,116.63
2019-02-03T01:46:04.360Z,110.80
2019-02-03T01:51:09.487Z,114.50
2019-02-03T01:56:14.627Z,108.83
2019-02-03T02:01:19.772Z,109.53
2019-02-03T02:06:25.321Z,118.20
2019-02-03T02:11:30.459Z,118.50
2019-02-03T02:16:35.722Z,113.80
2019-02-03T02:21:40.808Z,108.77
2019-02-03T02:26:46.865Z,107.53
2019-02-03T02:31:52.126Z,97.17
2019-02-03T02:36:57.276Z,100.90
2019-02-03T02:42:02.455Z,88.47
2019-02-03T02:47:07.796Z,95.20
2019-02-03T02:52:12.937Z,89.43
2019-02-03T02:57:18.100Z,90.07
2019-02-03T03:02:23.355Z,83.10
2019-02-03T03:07:28.545Z,85.63
2019-02-03T03:12:33.781Z,91.80
2019-02-03T03:17:38.863Z,90.90
2019-02-03T03:22:43.928Z,92.87
2019-02-03T03:27:49.434Z,99.20
2019-02-03T03:32:54.576Z,98.90
2019-02-03T03:37:59.578Z,96.43
2019-02-03T03:43:04.705Z,94.80
2019-02-03T03:48:10.109Z,99.87
2019-02-03T03:53:15.322Z,98.63
2019-02-03T03:58:20.513Z,98.20
2019-02-03T04:03:26.554Z,102.10
2019-02-03T04:08:44.175Z,100.83
2019-02-03T04:13:38.455Z,94.43
2019-02-03T04:18:44.061Z,98.07
2019-02-03T04:23:49.150Z,100.30
2019-02-03T04:28:54.223Z,109.03
2019-02-03T04:33:59.452Z,83.13
2019-02-03T04:39:06.826Z,89.93
2019-02-03T04:44:12.144Z,96.63
2019-02-03T04:49:17.384Z,85.87
2019-02-03T04:54:22.495Z,93.40
2019-02-03T04:59:27.647Z,97.53
2019-02-03T05:04:32.798Z,92.67
2019-02-03T05:09:38.024Z,92.73
2019-02-03T05:14:43.183Z,101.73
2019-02-03T05:19:48.338Z,93.97
2019-02-03T05:24:53.494Z,91.23
2019-02-03T05:29:58.895Z,94.17
2019-02-03T05:35:05.119Z,94.07
2019-02-03T05:40:11.936Z,89.50
2019-02-03T05:45:18.362Z,92.77
2019-02-03T05:50:23.624Z,94.50
2019-02-03T05:55:28.810Z,103.87
2019-02-03T06:00:36.435Z,95.37
2019-02-03T06:05:41.501Z,91.83
2019-02-03T06:10:46.633Z,100.40
2019-02-03T06:15:51.893Z,104.73
2019-02-03T06:20:57.043Z,101.07
2019-02-03T06:26:02.189Z,99.77
2019-02-03T06:31:14.250Z,102.20
2019-02-03T06:36:19.342Z,95.23
2019-02-03T06:41:24.481Z,98.53
2019-02-03T06:46:45.458Z,98.90
2019-02-03T06:51:50.718Z,96.33
2019-02-03T06:56:56.953Z,97.47
2019-02-03T07:02:02.126Z,101.83
2019-02-03T07:07:07.259Z,103.13
2019-02-03T07:12:12.417Z,101.13
2019-02-03T07:17:17.616Z,96.57
2019-02-03T07:22:23.177Z,96.73
2019-02-03T07:27:29.945Z,90.07
2019-02-03T07:32:35.104Z,90.70
2019-02-03T07:37:40.259Z,85.87
2019-02-03T07:42:45.492Z,81.30
2019-02-03T07:47:50.648Z,82.80
2019-02-03T07:52:57.116Z,81.53
2019-02-03T07:58:02.398Z,90.53
2019-02-03T08:03:07.683Z,91.13
2019-02-03T08:08:12.802Z,85.53
2019-02-03T08:13:18.569Z,89.00
2019-02-03T08:18:23.888Z,89.90
2019-02-03T08:23:30.477Z,87.23
2019-02-03T08:28:35.768Z,82.90
2019-02-03T08:33:44.005Z,83.93
2019-02-03T08:38:50.900Z,83.03
2019-02-03T08:43:59.493Z,81.47
2019-02-03T08:49:04.689Z,79.57
2019-02-03T08:54:12.786Z,74.60
2019-02-03T08:59:18.270Z,79.07
2019-02-03T09:04:24.667Z,74.30
2019-02-03T09:09:29.749Z,78.63
2019-02-03T09:14:35.183Z,79.20
2019-02-03T09:19:40.535Z,78.67
2019-02-03T09:24:47.278Z,71.60
2019-02-03T09:29:53.754Z,77.00
2019-02-03T09:34:59.577Z,75.73
2019-02-03T09:40:06.461Z,73.67
2019-02-03T09:45:13.643Z,76.97
2019-02-03T09:50:29.725Z,80.10
2019-02-03T09:55:36.697Z,74.23
2019-02-03T10:00:42.773Z,81.00
2019-02-03T10:05:51.566Z,78.17
2019-02-03T10:11:11.295Z,80.80
2019-02-03T10:16:07.710Z,75.63
2019-02-03T10:21:13.675Z,77.87
2019-02-03T10:26:23.329Z,78.67
2019-02-03T10:31:29.511Z,74.23
2019-02-03T10:36:34.683Z,80.83
2019-02-03T10:41:40.167Z,76.80
2019-02-03T10:46:47.289Z,75.87
2019-02-03T10:51:52.466Z,76.60
2019-02-03T10:56:57.615Z,74.63
2019-02-03T11:02:03.115Z,74.67
2019-02-03T11:07:08.553Z,76.97
2019-02-03T11:12:13.704Z,75.23
2019-02-03T11:17:18.835Z,76.03
2019-02-03T11:22:25.259Z,75.13
2019-02-03T11:27:30.473Z,75.20
2019-02-03T11:32:36.129Z,73.70
2019-02-03T11:37:41.214Z,75.07
2019-02-03T11:42:46.567Z,76.90
2019-02-03T11:47:51.741Z,80.63
2019-02-03T11:52:57.245Z,75.17
2019-02-03T11:58:03.762Z,74.73
2019-02-03T12:03:09.093Z,71.67
2019-02-03T12:08:14.344Z,76.03
2019-02-03T12:13:19.716Z,76.60
2019-02-03T12:18:25.896Z,71.57
2019-02-03T12:23:32.224Z,71.63
2019-02-03T12:28:37.409Z,71.27
2019-02-03T12:33:42.682Z,72.27
2019-02-03T12:38:47.771Z,63.37
2019-02-03T12:43:52.892Z,66.33
2019-02-03T12:48:58.692Z,67.53
2019-02-03T12:54:04.083Z,61.20
2019-02-03T12:59:09.516Z,69.37
2019-02-03T13:04:14.889Z,63.13
2019-02-03T13:09:19.957Z,65.33
2019-02-03T13:14:25.142Z,67.47
2019-02-03T13:19:30.399Z,58.60
2019-02-03T13:24:35.769Z,54.87
2019-02-03T13:29:42.658Z,60.10
2019-02-03T13:34:48.431Z,63.27
2019-02-03T13:39:53.800Z,66.07
2019-02-03T13:44:59.498Z,69.70
2019-02-03T13:50:06.344Z,65.83
2019-02-03T13:55:15.487Z,65.00
2019-02-03T14:00:31.290Z,61.23
2019-02-03T14:05:39.871Z,67.63
2019-02-03T14:10:50.658Z,64.37
2019-02-03T14:15:59.022Z,69.63
2019-02-03T14:21:11.354Z,69.37
2019-02-03T14:26:17.088Z,65.93
2019-02-03T14:31:24.542Z,64.33
2019-02-03T14:36:36.955Z,68.07
2019-02-03T14:41:45.231Z,63.60
2019-02-03T14:46:52.901Z,62.47
2019-02-03T14:51:59.414Z,66.03
2019-02-03T14:57:09.340Z,69.83
2019-02-03T15:02:18.023Z,58.17
2019-02-03T15:07:25.325Z,58.43
2019-02-03T15:12:33.011Z,57.97
2019-02-03T15:17:38.424Z,59.90
2019-02-03T15:22:46.399Z,61.60
2019-02-03T15:27:52.313Z,64.50
2019-02-03T15:33:00.877Z,59.87
2019-02-03T15:38:06.551Z,53.67
2019-02-03T15:43:11.751Z,61.13
2019-02-03T15:48:17.338Z,53.20
2019-02-03T15:53:29.921Z,56.03
2019-02-03T15:58:36.343Z,58.70
2019-02-03T16:03:44.997Z,58.73
2019-02-03T16:08:56.392Z,53.33
2019-02-03T16:14:04.563Z,53.70
2019-02-03T16:19:10.655Z,53.17
2019-02-03T16:24:16.100Z,56.47
2019-02-03T16:29:21.423Z,63.60
2019-02-03T16:34:27.495Z,58.17
2019-02-03T16:39:38.170Z,55.43
2019-02-03T16:44:44.498Z,58.37
2019-02-03T16:49:52.575Z,60.00
2019-02-03T16:55:00.000Z,52.23
2019-02-03T17:00:09.458Z,55.67
2019-02-03T17:05:25.993Z,60.17
2019-02-03T17:10:26.400Z,54.97
2019-02-03T17:15:38.790Z,60.13
2019-02-03T17:21:01.316Z,55.10
2019-02-03T17:26:02.944Z,55.00
2019-02-03T17:31:08.186Z,58.33
2019-02-03T17:36:14.383Z,55.67
2019-02-03T17:41:19.595Z,53.10
2019-02-03T17:46:24.796Z,51.20
2019-02-03T17:51:31.203Z,55.93
2019-02-03T17:56:36.930Z,45.23
2019-02-03T18:01:42.537Z,46.30
2019-02-03T18:06:53.008Z,49.27
2019-02-03T18:11:59.504Z,51.80
2019-02-03T18:17:06.013Z,47.23
2019-02-03T18:22:26.705Z,48.90
2019-02-03T18:27:32.376Z,48.53
2019-02-03T18:32:39.483Z,56.37
2019-02-03T18:37:48.642Z,50.87
2019-02-03T18:42:57.640Z,49.10
2019-02-03T18:48:05.756Z,48.63
2019-02-03T18:53:11.695Z,47.70
2019-02-03T18:58:17.278Z,49.47
2019-02-03T19:03:23.511Z,51.57
2019-02-03T19:08:29.043Z,48.53
2019-02-03T19:13:34.324Z,51.80
2019-02-03T19:18:44.301Z,52.57
2019-02-03T19:23:49.526Z,55.50
2019-02-03T19:28:55.036Z,58.17
2019-02-03T19:34:00.597Z,49.80
2019-02-03T19:39:09.757Z,52.63
2019-02-03T19:44:16.064Z,53.57
2019-02-03T19:49:22.258Z,51.37
2019-02-03T19:54:28.956Z,53.13
2019-02-03T19:59:46.274Z,56.10
2019-02-03T20:04:44.890Z,53.63
2019-02-03T20:09:55.735Z,56.53
2019-02-03T20:15:09.719Z,51.33
2019-02-03T20:20:14.991Z,58.47
2019-02-03T20:25:20.263Z,57.97
2019-02-03T20:30:38.096Z,51.23
2019-02-03T20:35:33.695Z,54.97
2019-02-03T20:40:45.611Z,55.17
2019-02-03T20:45:50.972Z,48.30
2019-02-03T20:50:58.710Z,51.53
2019-02-03T20:56:04.067Z,51.17
2019-02-03T21:01:11.451Z,54.30
2019-02-03T21:06:20.835Z,52.20
2019-02-03T21:11:28.149Z,50.40
2019-02-03T21:16:35.603Z,52.23
2019-02-03T21:21:42.805Z,48.60
2019-02-03T21:26:48.278Z,53.70
2019-02-03T21:31:53.540Z,46.47
2019-02-03T21:36:59.548Z,44.73
2019-02-03T21:42:06.980Z,46.17
2019-02-03T21:47:12.285Z,42.33
2019-02-03T21:52:17.889Z,41.07
2019-02-03T21:57:23.544Z,46.53
2019-02-03T22:02:28.653Z,48.93
2019-02-03T22:07:36.395Z,43.77
2019-02-03T22:12:44.090Z,47.23
2019-02-03T22:17:51.173Z,47.03
2019-02-03T22:22:56.370Z,43.40
2019-02-03T22:28:01.650Z,42.83
2019-02-03T22:33:11.409Z,39.10
2019-02-03T22:38:17.250Z,44.37
2019-02-03T22:43:22.913Z,47.00
2019-02-03T22:48:31.480Z,48.40
2019-02-03T22:53:36.580Z,47.13
2019-02-03T22:58:42.465Z,49.30
2019-02-03T23:04:32.317Z,42.33
2019-02-03T23:09:42.696Z,44.73
2019-02-03T23:14:48.092Z,44.97
2019-02-03T23:19:53.351Z,41.50
2019-02-03T23:25:03.750Z,41.40
2019-02-03T23:30:13.099Z,44.70
2019-02-03T23:35:18.542Z,39.57
2019-02-03T23:40:23.695Z,42.13
2019-02-03T23:45:28.827Z,46.73
2019-02-03T23:50:33.876Z,44.40
2019-02-03T23:55:39.022Z,41.13
